Time;durP1;ratioP1;P1;durP2;ratioP2;P2;SDS_P1;SDS_P2;PMS_P1;PMS_P2;Temp;Humidity;BMP_temperature;BMP_pressure;BME280_temperature;BME280_humidity;BME280_pressure;Samples;Min_cycle;Max_cycle;Signal;HPM_P1;HPM_P2
2022/04/14 00:00:10;;;;;;;;;;;;;;;;;;1288715;23;885;-45
2022/04/14 00:00:43;;;;;;;;;;;;;;;;;;1288823;23;928;-45
2022/04/14 00:01:13;;;;;;;;;;;;;;;;;;1288836;23;833;-45
2022/04/14 00:01:44;;;;;;;;;;;;;;;;;;1289025;23;951;-44
2022/04/14 00:02:14;;;;;;;;;;;;;;;;;;1288360;23;829;-45
2022/04/14 00:02:44;;;;;;;;;;;;;;;;;;1289310;23;821;-44
2022/04/14 00:03:15;;;;;;;;;;;;;;;;;;1288762;23;877;-43
2022/04/14 00:03:45;;;;;;;;;;;;;;;;;;1289137;23;770;-43
2022/04/14 00:04:15;;;;;;;;;;;;;;;;;;1291243;23;991;-44
2022/04/14 00:04:46;;;;;;;;;;;;;;;;;;1291774;23;916;-44
2022/04/14 00:05:17;;;;;;;;;;;;;;;;;;1291769;23;829;-44
2022/04/14 00:05:47;;;;;;;;;;;;;;;;;;1292026;23;956;-44
2022/04/14 00:06:18;;;;;;;;;;;;;;;;;;1289465;23;944;-44
2022/04/14 00:06:48;;;;;;;;;;;;;;;;;;1288451;23;928;-44
2022/04/14 00:07:21;;;;;;;;;;;;;;;;;;1288589;23;794;-44
2022/04/14 00:07:51;;;;;;;;;;;;;;;;;;1288461;23;1242;-44
2022/04/14 00:08:22;;;;;;;;;;;;;;;;;;1288687;23;793;-45
2022/04/14 00:08:52;;;;;;;;;;;;;;;;;;1288176;23;829;-44
2022/04/14 00:09:22;;;;;;;;;;;;;;;;;;1288894;23;888;-44
2022/04/14 00:09:53;;;;;;;;;;;;;;;;;;1288337;23;869;-44
2022/04/14 00:10:23;;;;;;;;;;;;;;;;;;1288700;23;809;-44
2022/04/14 00:10:53;;;;;;;;;;;;;;;;;;1288353;23;908;-44
2022/04/14 00:11:24;;;;;;;;;;;;;;;;;;1288904;23;928;-44
2022/04/14 00:11:54;;;;;;;;;;;;;;;;;;1288268;23;873;-44
2022/04/14 00:12:25;;;;;;;;;;;;;;;;;;1288928;23;908;-44
2022/04/14 00:12:55;;;;;;;;;;;;;;;;;;1288266;23;845;-44
2022/04/14 00:13:25;;;;;;;;;;;;;;;;;;1288720;23;920;-44
2022/04/14 00:13:56;;;;;;;;;;;;;;;;;;1288375;22;1334;-44
2022/04/14 00:14:26;;;;;;;;;;;;;;;;;;1288316;23;972;-44
2022/04/14 00:14:57;;;;;;;;;;;;;;;;;;1288387;23;860;-44
2022/04/14 00:15:28;;;;;;;;;;;;;;;;;;1288682;23;869;-45
2022/04/14 00:15:58;;;;;;;;;;;;;;;;;;1288273;23;932;-44
2022/04/14 00:16:29;;;;;;;;;;;;;;;;;;1288896;23;714;-44
2022/04/14 00:16:59;;;;;;;;;;;;;;;;;;1288088;23;937;-45
2022/04/14 00:17:29;;;;;;;;;;;;;;;;;;1288857;23;1948;-44
2022/04/14 00:18:00;;;;;;;;;;;;;;;;;;1288387;23;837;-44
2022/04/14 00:18:30;;;;;;;;;;;;;;;;;;1288929;23;952;-44
2022/04/14 00:19:00;;;;;;;;;;;;;;;;;;1288539;23;781;-44
2022/04/14 00:19:31;;;;;;;;;;;;;;;;;;1288756;23;924;-44
2022/04/14 00:20:03;;;;;;;;;;;;;;;;;;1288312;23;805;-44
2022/04/14 00:20:33;;;;;;;;;;;;;;;;;;1288692;23;909;-44
2022/04/14 00:21:04;;;;;;;;;;;;;;;;;;1288442;23;877;-44
2022/04/14 00:21:37;;;;;;;;;;;;;;;;;;1288410;23;916;-44
2022/04/14 00:22:08;;;;;;;;;;;;;;;;;;1288263;23;1621;-45
2022/04/14 00:22:38;;;;;;;;;;;;;;;;;;1288685;23;955;-44
2022/04/14 00:23:11;;;;;;;;;;;;;;;;;;1288612;23;913;-44
2022/04/14 00:23:42;;;;;;;;;;;;;;;;;;1288518;23;1078;-45
2022/04/14 00:24:12;;;;;;;;;;;;;;;;;;1288412;23;958;-44
2022/04/14 00:24:42;;;;;;;;;;;;;;;;;;1288830;23;802;-45
2022/04/14 00:25:13;;;;;;;;;;;;;;;;;;1287646;23;1088;-45
2022/04/14 00:25:43;;;;;;;;;;;;;;;;;;1288648;23;1812;-45
2022/04/14 00:26:17;;;;;;;;;;;;;;;;;;1288296;23;885;-44
2022/04/14 00:26:47;;;;;;;;;;;;;;;;;;1288663;23;892;-45
2022/04/14 00:27:18;;;;;;;;;;;;;;;;;;1288603;23;972;-45
2022/04/14 00:27:49;;;;;;;;;;;;;;;;;;1288568;23;805;-46
2022/04/14 00:28:19;;;;;;;;;;;;;;;;;;1288570;23;794;-45
2022/04/14 00:28:49;;;;;;;;;;;;;;;;;;1288289;23;905;-45
2022/04/14 00:29:20;;;;;;;;;;;;;;;;;;1288556;23;932;-45
2022/04/14 00:29:50;;;;;;;;;;;;;;;;;;1288395;23;1609;-45
2022/04/14 00:30:20;;;;;;;;;;;;;;;;;;1288548;23;987;-45
2022/04/14 00:30:50;;;;;;;;;;;;;;;;;;1288389;23;750;-45
2022/04/14 00:31:21;;;;;;;;;;;;;;;;;;1288592;23;876;-45
2022/04/14 00:31:51;;;;;;;;;;;;;;;;;;1288476;23;916;-45
2022/04/14 00:32:21;;;;;;;;;;;;;;;;;;1288568;23;853;-45
2022/04/14 00:32:53;;;;;;;;;;;;;;;;;;1288319;23;888;-45
2022/04/14 00:33:23;;;;;;;;;;;;;;;;;;1288740;23;952;-45
2022/04/14 00:33:53;;;;;;;;;;;;;;;;;;1288329;23;924;-44
2022/04/14 00:34:30;;;;;;;;;;;;;;;;;;1288384;23;826;-46
2022/04/14 00:35:00;;;;;;;;;;;;;;;;;;1287900;23;967;-44
2022/04/14 00:35:30;;;;;;;;;;;;;;;;;;1288152;23;793;-44
2022/04/14 00:36:01;;;;;;;;;;;;;;;;;;1288109;23;813;-45
2022/04/14 00:36:33;;;;;;;;;;;;;;;;;;1288131;23;994;-44
2022/04/14 00:37:04;;;;;;;;;;;;;;;;;;1288240;23;948;-45
2022/04/14 00:37:35;;;;;;;;;;;;;;;;;;1288561;23;1904;-45
2022/04/14 00:38:05;;;;;;;;;;;;;;;;;;1288256;23;786;-45
2022/04/14 00:38:36;;;;;;;;;;;;;;;;;;1281826;23;1137;-44
2022/04/14 00:39:09;;;;;;;;;;;;;;;;;;1281885;23;996;-44
2022/04/14 00:39:45;;;;;;;;;;;;;;;;;;1275774;23;640;-45
2022/04/14 00:40:16;;;;;;;;;;;;;;;;;;1277285;23;870;-44
2022/04/14 00:40:52;;;;;;;;;;;;;;;;;;1281623;23;1023;-45
2022/04/14 00:41:22;;;;;;;;;;;;;;;;;;1284869;23;892;-45
2022/04/14 00:41:53;;;;;;;;;;;;;;;;;;1288095;23;773;-45
2022/04/14 00:42:26;;;;;;;;;;;;;;;;;;1288646;23;853;-44
2022/04/14 00:42:56;;;;;;;;;;;;;;;;;;1288400;23;786;-45
2022/04/14 00:43:33;;;;;;;;;;;;;;;;;;1288843;23;948;-44
2022/04/14 00:44:04;;;;;;;;;;;;;;;;;;1287800;23;928;-45
2022/04/14 00:44:34;;;;;;;;;;;;;;;;;;1288418;23;833;-45
2022/04/14 00:45:06;;;;;;;;;;;;;;;;;;1281878;23;722;-44
2022/04/14 00:45:37;;;;;;;;;;;;;;;;;;1282040;23;941;-44
2022/04/14 00:46:10;;;;;;;;;;;;;;;;;;1281744;23;849;-44
2022/04/14 00:46:40;;;;;;;;;;;;;;;;;;1283212;23;873;-44
2022/04/14 00:47:12;;;;;;;;;;;;;;;;;;1288322;23;862;-44
2022/04/14 00:47:42;;;;;;;;;;;;;;;;;;1288794;23;1174;-44
2022/04/14 00:48:13;;;;;;;;;;;;;;;;;;1288267;23;884;-44
2022/04/14 00:48:44;;;;;;;;;;;;;;;;;;1288792;23;869;-45
2022/04/14 00:49:14;;;;;;;;;;;;;;;;;;1288326;23;868;-45
2022/04/14 00:49:44;;;;;;;;;;;;;;;;;;1288678;23;1702;-45
2022/04/14 00:50:15;;;;;;;;;;;;;;;;;;1288405;23;1564;-45
2022/04/14 00:50:45;;;;;;;;;;;;;;;;;;1288876;23;869;-45
2022/04/14 00:51:16;;;;;;;;;;;;;;;;;;1287767;23;785;-45
2022/04/14 00:51:46;;;;;;;;;;;;;;;;;;1288885;23;869;-44
2022/04/14 00:52:17;;;;;;;;;;;;;;;;;;1288023;23;972;-45
2022/04/14 00:52:47;;;;;;;;;;;;;;;;;;1288736;23;1132;-44
2022/04/14 00:53:18;;;;;;;;;;;;;;;;;;1288514;23;936;-45
2022/04/14 00:53:48;;;;;;;;;;;;;;;;;;1288491;23;944;-44
2022/04/14 00:54:18;;;;;;;;;;;;;;;;;;1288628;23;855;-44
2022/04/14 00:54:49;;;;;;;;;;;;;;;;;;1288744;23;905;-45
2022/04/14 00:55:19;;;;;;;;;;;;;;;;;;1288293;23;948;-45
2022/04/14 00:55:50;;;;;;;;;;;;;;;;;;1288547;23;1206;-45
2022/04/14 00:56:23;;;;;;;;;;;;;;;;;;1288557;23;844;-45
2022/04/14 00:56:53;;;;;;;;;;;;;;;;;;1281596;23;1455;-45
2022/04/14 00:57:24;;;;;;;;;;;;;;;;;;1282032;23;1904;-44
2022/04/14 00:57:54;;;;;;;;;;;;;;;;;;1281551;23;808;-45
2022/04/14 00:58:25;;;;;;;;;;;;;;;;;;1281897;23;786;-45
2022/04/14 00:58:59;;;;;;;;;;;;;;;;;;1287988;23;860;-45
2022/04/14 00:59:32;;;;;;;;;;;;;;;;;;1288681;23;812;-45
2022/04/14 01:00:03;;;;;;;;;;;;;;;;;;1288306;23;925;-45
2022/04/14 01:00:33;;;;;;;;;;;;;;;;;;1288760;23;750;-44
2022/04/14 01:01:06;;;;;;;;;;;;;;;;;;1288570;23;749;-45
2022/04/14 01:01:37;;;;;;;;;;;;;;;;;;1288627;23;892;-45
2022/04/14 01:02:09;;;;;;;;;;;;;;;;;;1288228;23;921;-44
2022/04/14 01:02:39;;;;;;;;;;;;;;;;;;1288720;23;858;-44
2022/04/14 01:03:10;;;;;;;;;;;;;;;;;;1288379;23;968;-44
2022/04/14 01:03:41;;;;;;;;;;;;;;;;;;1288837;23;869;-44
2022/04/14 01:04:12;;;;;;;;;;;;;;;;;;1288291;23;955;-44
2022/04/14 01:04:43;;;;;;;;;;;;;;;;;;1288775;23;828;-45
2022/04/14 01:05:14;;;;;;;;;;;;;;;;;;1288441;23;813;-44
2022/04/14 01:05:45;;;;;;;;;;;;;;;;;;1288719;23;853;-44
2022/04/14 01:06:16;;;;;;;;;;;;;;;;;;1287907;23;876;-45
2022/04/14 01:06:47;;;;;;;;;;;;;;;;;;1288770;23;837;-44
2022/04/14 01:07:17;;;;;;;;;;;;;;;;;;1288284;23;797;-46
2022/04/14 01:07:48;;;;;;;;;;;;;;;;;;1288619;23;1130;-45
2022/04/14 01:08:19;;;;;;;;;;;;;;;;;;1288589;23;932;-45
2022/04/14 01:09:42;;;;;;;;;;;;;;;;;;1288414;23;1605;-45
2022/04/14 01:10:12;;;;;;;;;;;;;;;;;;1288295;23;900;-45
2022/04/14 01:10:47;;;;;;;;;;;;;;;;;;1288568;23;921;-46
2022/04/14 01:11:18;;;;;;;;;;;;;;;;;;1288183;23;933;-45
2022/04/14 01:11:55;;;;;;;;;;;;;;;;;;1288519;23;832;-46
2022/04/14 01:12:26;;;;;;;;;;;;;;;;;;1288457;23;876;-45
2022/04/14 01:12:56;;;;;;;;;;;;;;;;;;1288595;23;872;-44
2022/04/14 01:13:27;;;;;;;;;;;;;;;;;;1288171;23;880;-45
2022/04/14 01:13:57;;;;;;;;;;;;;;;;;;1288151;22;1211;-45
2022/04/14 01:14:34;;;;;;;;;;;;;;;;;;1288494;23;928;-45
2022/04/14 01:15:11;;;;;;;;;;;;;;;;;;1288354;23;868;-45
2022/04/14 01:15:42;;;;;;;;;;;;;;;;;;1288678;23;793;-45
2022/04/14 01:16:12;;;;;;;;;;;;;;;;;;1288358;23;809;-45
2022/04/14 01:16:42;;;;;;;;;;;;;;;;;;1288696;23;869;-45
2022/04/14 01:17:12;;;;;;;;;;;;;;;;;;1288617;23;1084;-45
2022/04/14 01:17:43;;;;;;;;;;;;;;;;;;1288287;23;1900;-45
2022/04/14 01:18:15;;;;;;;;;;;;;;;;;;1288363;23;975;-45
2022/04/14 01:18:45;;;;;;;;;;;;;;;;;;1288489;23;1045;-45
2022/04/14 01:19:15;;;;;;;;;;;;;;;;;;1288701;23;746;-45
2022/04/14 01:19:47;;;;;;;;;;;;;;;;;;1288588;23;948;-45
2022/04/14 01:20:18;;;;;;;;;;;;;;;;;;1288256;23;1024;-45
2022/04/14 01:20:48;;;;;;;;;;;;;;;;;;1287954;23;893;-44
2022/04/14 01:21:21;;;;;;;;;;;;;;;;;;1288705;23;976;-45
2022/04/14 01:21:57;;;;;;;;;;;;;;;;;;1288139;23;797;-45
2022/04/14 01:22:30;;;;;;;;;;;;;;;;;;1288565;23;806;-45
2022/04/14 01:23:02;;;;;;;;;;;;;;;;;;1288443;23;964;-44
2022/04/14 01:23:39;;;;;;;;;;;;;;;;;;1288495;23;976;-45
2022/04/14 01:24:13;;;;;;;;;;;;;;;;;;1288368;23;936;-44
2022/04/14 01:24:44;;;;;;;;;;;;;;;;;;1288517;23;919;-45
2022/04/14 01:25:14;;;;;;;;;;;;;;;;;;1288506;23;869;-44
2022/04/14 01:25:45;;;;;;;;;;;;;;;;;;1288913;23;829;-45
2022/04/14 01:26:15;;;;;;;;;;;;;;;;;;1288245;23;809;-44
2022/04/14 01:26:45;;;;;;;;;;;;;;;;;;1288465;23;897;-45
2022/04/14 01:27:15;;;;;;;;;;;;;;;;;;1288447;23;762;-45
2022/04/14 01:27:46;;;;;;;;;;;;;;;;;;1288361;23;841;-44
2022/04/14 01:28:17;;;;;;;;;;;;;;;;;;1287955;23;924;-45
2022/04/14 01:28:50;;;;;;;;;;;;;;;;;;1288148;23;797;-44
2022/04/14 01:29:22;;;;;;;;;;;;;;;;;;1288830;23;904;-44
2022/04/14 01:29:52;;;;;;;;;;;;;;;;;;1288315;23;767;-44
2022/04/14 01:30:22;;;;;;;;;;;;;;;;;;1288590;23;873;-45
2022/04/14 01:30:53;;;;;;;;;;;;;;;;;;1288404;23;850;-45
2022/04/14 01:31:23;;;;;;;;;;;;;;;;;;1288638;23;759;-44
2022/04/14 01:31:54;;;;;;;;;;;;;;;;;;1288416;23;897;-44
2022/04/14 01:32:24;;;;;;;;;;;;;;;;;;1287627;23;1249;-44
2022/04/14 01:32:55;;;;;;;;;;;;;;;;;;1288398;23;849;-45
2022/04/14 01:33:25;;;;;;;;;;;;;;;;;;1288817;23;864;-45
2022/04/14 01:33:55;;;;;;;;;;;;;;;;;;1288330;23;773;-45
2022/04/14 01:34:26;;;;;;;;;;;;;;;;;;1288503;23;880;-44
2022/04/14 01:34:56;;;;;;;;;;;;;;;;;;1288544;23;911;-45
2022/04/14 01:35:26;;;;;;;;;;;;;;;;;;1288538;23;797;-44
2022/04/14 01:35:57;;;;;;;;;;;;;;;;;;1288183;23;904;-44
2022/04/14 01:36:27;;;;;;;;;;;;;;;;;;1288774;23;884;-45
2022/04/14 01:37:00;;;;;;;;;;;;;;;;;;1288559;23;853;-44
2022/04/14 01:37:31;;;;;;;;;;;;;;;;;;1288421;23;1935;-44
2022/04/14 01:38:01;;;;;;;;;;;;;;;;;;1288766;23;825;-45
2022/04/14 01:38:31;;;;;;;;;;;;;;;;;;1288681;23;1290;-44
2022/04/14 01:39:02;;;;;;;;;;;;;;;;;;1288775;23;730;-44
2022/04/14 01:39:32;;;;;;;;;;;;;;;;;;1290211;23;872;-45
2022/04/14 01:40:03;;;;;;;;;;;;;;;;;;1291688;23;900;-45
2022/04/14 01:40:34;;;;;;;;;;;;;;;;;;1291695;23;801;-45
2022/04/14 01:41:04;;;;;;;;;;;;;;;;;;1291541;23;959;-44
2022/04/14 01:41:34;;;;;;;;;;;;;;;;;;1290597;23;885;-44
2022/04/14 01:42:05;;;;;;;;;;;;;;;;;;1288246;23;836;-45
2022/04/14 01:42:35;;;;;;;;;;;;;;;;;;1288552;23;971;-44
2022/04/14 01:43:06;;;;;;;;;;;;;;;;;;1287870;23;962;-44
2022/04/14 01:43:36;;;;;;;;;;;;;;;;;;1288430;23;912;-44
2022/04/14 01:44:07;;;;;;;;;;;;;;;;;;1288409;23;659;-44
2022/04/14 01:44:37;;;;;;;;;;;;;;;;;;1288509;23;798;-44
2022/04/14 01:45:10;;;;;;;;;;;;;;;;;;1288520;23;790;-44
2022/04/14 01:45:43;;;;;;;;;;;;;;;;;;1288650;23;944;-44
2022/04/14 01:46:14;;;;;;;;;;;;;;;;;;1288221;23;824;-45
2022/04/14 01:46:47;;;;;;;;;;;;;;;;;;1288558;23;801;-45
2022/04/14 01:47:17;;;;;;;;;;;;;;;;;;1288287;23;897;-44
2022/04/14 01:47:48;;;;;;;;;;;;;;;;;;1288639;23;675;-44
2022/04/14 01:48:21;;;;;;;;;;;;;;;;;;1288505;23;828;-44
2022/04/14 01:48:51;;;;;;;;;;;;;;;;;;1288335;23;924;-44
2022/04/14 01:49:21;;;;;;;;;;;;;;;;;;1288702;23;943;-44
2022/04/14 01:49:52;;;;;;;;;;;;;;;;;;1288156;23;824;-44
2022/04/14 01:50:22;;;;;;;;;;;;;;;;;;1288164;23;919;-44
2022/04/14 01:50:53;;;;;;;;;;;;;;;;;;1288382;23;860;-44
2022/04/14 01:51:23;;;;;;;;;;;;;;;;;;1288657;23;848;-46
2022/04/14 01:51:53;;;;;;;;;;;;;;;;;;1288216;23;746;-45
2022/04/14 01:52:24;;;;;;;;;;;;;;;;;;1288046;23;1087;-45
2022/04/14 01:52:54;;;;;;;;;;;;;;;;;;1287838;23;975;-45
2022/04/14 01:53:24;;;;;;;;;;;;;;;;;;1288172;23;846;-44
2022/04/14 01:53:55;;;;;;;;;;;;;;;;;;1287456;23;833;-44
2022/04/14 01:54:25;;;;;;;;;;;;;;;;;;1288545;23;940;-45
2022/04/14 01:54:58;;;;;;;;;;;;;;;;;;1288139;23;798;-45
2022/04/14 01:55:28;;;;;;;;;;;;;;;;;;1288537;23;1620;-43
2022/04/14 01:55:58;;;;;;;;;;;;;;;;;;1288326;23;951;-44
2022/04/14 01:56:29;;;;;;;;;;;;;;;;;;1288507;23;940;-45
2022/04/14 01:56:59;;;;;;;;;;;;;;;;;;1288512;23;904;-44
2022/04/14 01:57:30;;;;;;;;;;;;;;;;;;1288587;23;1964;-45
2022/04/14 01:58:00;;;;;;;;;;;;;;;;;;1287616;23;920;-44
2022/04/14 01:58:30;;;;;;;;;;;;;;;;;;1288760;23;869;-44
2022/04/14 01:59:01;;;;;;;;;;;;;;;;;;1288236;23;932;-44
2022/04/14 01:59:31;;;;;;;;;;;;;;;;;;1288664;23;817;-44
2022/04/14 02:00:04;;;;;;;;;;;;;;;;;;1288216;23;900;-44
2022/04/14 02:00:35;;;;;;;;;;;;;;;;;;1288456;23;596;-44
2022/04/14 02:01:05;;;;;;;;;;;;;;;;;;1288253;23;885;-44
2022/04/14 02:01:35;;;;;;;;;;;;;;;;;;1288536;23;1331;-45
2022/04/14 02:02:06;;;;;;;;;;;;;;;;;;1288072;23;829;-44
2022/04/14 02:02:36;;;;;;;;;;;;;;;;;;1288731;23;921;-44
2022/04/14 02:03:06;;;;;;;;;;;;;;;;;;1288091;23;1646;-44
2022/04/14 02:03:36;;;;;;;;;;;;;;;;;;1288615;22;1041;-43
2022/04/14 02:04:07;;;;;;;;;;;;;;;;;;1287958;23;809;-44
2022/04/14 02:04:37;;;;;;;;;;;;;;;;;;1288562;23;762;-44
2022/04/14 02:05:08;;;;;;;;;;;;;;;;;;1287778;23;939;-44
2022/04/14 02:05:38;;;;;;;;;;;;;;;;;;1288608;23;809;-45
2022/04/14 02:06:09;;;;;;;;;;;;;;;;;;1288061;23;916;-45
2022/04/14 02:06:39;;;;;;;;;;;;;;;;;;1288668;23;868;-44
2022/04/14 02:07:10;;;;;;;;;;;;;;;;;;1288118;23;888;-45
2022/04/14 02:07:41;;;;;;;;;;;;;;;;;;1281817;23;666;-44
2022/04/14 02:08:11;;;;;;;;;;;;;;;;;;1275105;23;1331;-45
2022/04/14 02:08:42;;;;;;;;;;;;;;;;;;1275496;23;850;-44
2022/04/14 02:09:16;;;;;;;;;;;;;;;;;;1275573;23;1064;-44
2022/04/14 02:09:46;;;;;;;;;;;;;;;;;;1282474;23;929;-44
2022/04/14 02:10:16;;;;;;;;;;;;;;;;;;1288255;23;818;-44
2022/04/14 02:10:47;;;;;;;;;;;;;;;;;;1288579;23;876;-44
2022/04/14 02:11:17;;;;;;;;;;;;;;;;;;1288161;23;810;-44
2022/04/14 02:11:47;;;;;;;;;;;;;;;;;;1288412;23;900;-45
2022/04/14 02:12:18;;;;;;;;;;;;;;;;;;1288213;23;849;-45
2022/04/14 02:12:48;;;;;;;;;;;;;;;;;;1287922;23;992;-45
2022/04/14 02:13:18;;;;;;;;;;;;;;;;;;1288766;23;817;-45
2022/04/14 02:13:49;;;;;;;;;;;;;;;;;;1287931;22;1148;-46
2022/04/14 02:14:19;;;;;;;;;;;;;;;;;;1288673;23;773;-45
2022/04/14 02:14:50;;;;;;;;;;;;;;;;;;1288115;23;1004;-44
2022/04/14 02:15:20;;;;;;;;;;;;;;;;;;1288761;23;845;-44
2022/04/14 02:15:51;;;;;;;;;;;;;;;;;;1288027;23;1569;-44
2022/04/14 02:16:21;;;;;;;;;;;;;;;;;;1288514;23;968;-44
2022/04/14 02:16:51;;;;;;;;;;;;;;;;;;1288292;23;892;-48
2022/04/14 02:17:22;;;;;;;;;;;;;;;;;;1288731;23;1924;-45
2022/04/14 02:17:52;;;;;;;;;;;;;;;;;;1288050;23;782;-45
2022/04/14 02:18:23;;;;;;;;;;;;;;;;;;1288279;23;1227;-45
2022/04/14 02:18:53;;;;;;;;;;;;;;;;;;1288191;23;880;-45
2022/04/14 02:19:23;;;;;;;;;;;;;;;;;;1288577;23;928;-44
2022/04/14 02:19:54;;;;;;;;;;;;;;;;;;1287959;23;952;-44
2022/04/14 02:20:24;;;;;;;;;;;;;;;;;;1288429;23;731;-45
2022/04/14 02:20:55;;;;;;;;;;;;;;;;;;1288259;23;798;-44
2022/04/14 02:21:25;;;;;;;;;;;;;;;;;;1288390;23;841;-45
2022/04/14 02:21:58;;;;;;;;;;;;;;;;;;1287890;23;1005;-45
2022/04/14 02:22:28;;;;;;;;;;;;;;;;;;1288598;23;1056;-44
2022/04/14 02:22:59;;;;;;;;;;;;;;;;;;1288229;23;818;-45
2022/04/14 02:23:29;;;;;;;;;;;;;;;;;;1288649;23;786;-45
2022/04/14 02:23:59;;;;;;;;;;;;;;;;;;1288277;23;1002;-45
2022/04/14 02:24:29;;;;;;;;;;;;;;;;;;1288297;23;813;-44
2022/04/14 02:25:00;;;;;;;;;;;;;;;;;;1288323;23;923;-45
2022/04/14 02:25:30;;;;;;;;;;;;;;;;;;1287823;23;964;-44
2022/04/14 02:26:00;;;;;;;;;;;;;;;;;;1287359;23;935;-45
2022/04/14 02:26:51;;;;;;;;;;;;;;;;;;1288328;23;856;-45
2022/04/14 02:27:21;;;;;;;;;;;;;;;;;;1287310;23;1089;-45
2022/04/14 02:27:51;;;;;;;;;;;;;;;;;;1288497;23;742;-45
2022/04/14 02:28:22;;;;;;;;;;;;;;;;;;1288270;23;1124;-44
2022/04/14 02:28:54;;;;;;;;;;;;;;;;;;1288276;23;849;-45
2022/04/14 02:29:24;;;;;;;;;;;;;;;;;;1288567;23;881;-45
2022/04/14 02:29:54;;;;;;;;;;;;;;;;;;1288364;23;754;-45
2022/04/14 02:30:25;;;;;;;;;;;;;;;;;;1287788;23;1367;-45
2022/04/14 02:30:55;;;;;;;;;;;;;;;;;;1288161;23;873;-45
2022/04/14 02:31:25;;;;;;;;;;;;;;;;;;1288623;23;798;-45
2022/04/14 02:31:57;;;;;;;;;;;;;;;;;;1288199;23;948;-45
2022/04/14 02:32:28;;;;;;;;;;;;;;;;;;1288563;23;876;-45
2022/04/14 02:32:58;;;;;;;;;;;;;;;;;;1288256;23;920;-45
2022/04/14 02:33:28;;;;;;;;;;;;;;;;;;1288521;23;912;-45
2022/04/14 02:34:01;;;;;;;;;;;;;;;;;;1288319;23;1005;-45
2022/04/14 02:34:32;;;;;;;;;;;;;;;;;;1288558;23;916;-44
2022/04/14 02:35:04;;;;;;;;;;;;;;;;;;1287755;23;912;-45
2022/04/14 02:35:34;;;;;;;;;;;;;;;;;;1288590;23;856;-45
2022/04/14 02:36:04;;;;;;;;;;;;;;;;;;1288092;23;921;-45
2022/04/14 02:36:35;;;;;;;;;;;;;;;;;;1288636;23;881;-44
2022/04/14 02:37:05;;;;;;;;;;;;;;;;;;1288223;23;999;-44
2022/04/14 02:37:35;;;;;;;;;;;;;;;;;;1288289;23;1939;-45
2022/04/14 02:38:06;;;;;;;;;;;;;;;;;;1288136;23;920;-45
2022/04/14 02:38:36;;;;;;;;;;;;;;;;;;1288420;23;1207;-45
2022/04/14 02:39:06;;;;;;;;;;;;;;;;;;1288283;23;957;-45
2022/04/14 02:39:37;;;;;;;;;;;;;;;;;;1288446;23;832;-45
2022/04/14 02:40:07;;;;;;;;;;;;;;;;;;1286971;23;1355;-45
2022/04/14 02:40:38;;;;;;;;;;;;;;;;;;1288727;23;940;-44
2022/04/14 02:41:10;;;;;;;;;;;;;;;;;;1288080;23;838;-45
2022/04/14 02:41:41;;;;;;;;;;;;;;;;;;1288421;23;777;-45
2022/04/14 02:42:11;;;;;;;;;;;;;;;;;;1287633;23;909;-44
2022/04/14 02:42:41;;;;;;;;;;;;;;;;;;1288674;23;998;-45
2022/04/14 02:43:12;;;;;;;;;;;;;;;;;;1288257;23;884;-44
2022/04/14 02:43:42;;;;;;;;;;;;;;;;;;1288639;23;884;-44
2022/04/14 02:44:12;;;;;;;;;;;;;;;;;;1288141;23;861;-45
2022/04/14 02:44:42;;;;;;;;;;;;;;;;;;1288901;23;872;-44
2022/04/14 02:45:13;;;;;;;;;;;;;;;;;;1288183;23;900;-44
2022/04/14 02:45:43;;;;;;;;;;;;;;;;;;1288376;23;857;-46
2022/04/14 02:46:13;;;;;;;;;;;;;;;;;;1288087;23;917;-45
2022/04/14 02:46:44;;;;;;;;;;;;;;;;;;1288521;23;769;-45
2022/04/14 02:47:14;;;;;;;;;;;;;;;;;;1288300;23;790;-45
2022/04/14 02:47:44;;;;;;;;;;;;;;;;;;1288720;23;913;-45
2022/04/14 02:48:15;;;;;;;;;;;;;;;;;;1288190;23;872;-45
2022/04/14 02:48:45;;;;;;;;;;;;;;;;;;1281906;23;1372;-45
2022/04/14 02:49:16;;;;;;;;;;;;;;;;;;1281721;23;777;-45
2022/04/14 02:49:46;;;;;;;;;;;;;;;;;;1281428;23;797;-45
2022/04/14 02:50:16;;;;;;;;;;;;;;;;;;1281756;23;909;-45
2022/04/14 02:50:47;;;;;;;;;;;;;;;;;;1288444;23;889;-45
2022/04/14 02:51:17;;;;;;;;;;;;;;;;;;1288477;23;861;-47
2022/04/14 02:51:47;;;;;;;;;;;;;;;;;;1288662;23;877;-45
2022/04/14 02:52:18;;;;;;;;;;;;;;;;;;1288197;23;862;-44
2022/04/14 02:52:48;;;;;;;;;;;;;;;;;;1288472;23;968;-45
2022/04/14 02:53:19;;;;;;;;;;;;;;;;;;1288225;23;1130;-44
2022/04/14 02:53:49;;;;;;;;;;;;;;;;;;1288177;23;880;-45
2022/04/14 02:54:19;;;;;;;;;;;;;;;;;;1288600;23;779;-44
2022/04/14 02:54:50;;;;;;;;;;;;;;;;;;1288273;23;1000;-45
2022/04/14 02:55:21;;;;;;;;;;;;;;;;;;1288520;23;881;-44
2022/04/14 02:55:51;;;;;;;;;;;;;;;;;;1288322;23;848;-44
2022/04/14 02:56:21;;;;;;;;;;;;;;;;;;1288568;23;1703;-45
2022/04/14 02:56:51;;;;;;;;;;;;;;;;;;1288298;23;821;-44
2022/04/14 02:57:22;;;;;;;;;;;;;;;;;;1288212;23;896;-45
2022/04/14 02:57:52;;;;;;;;;;;;;;;;;;1288369;23;904;-45
2022/04/14 02:58:22;;;;;;;;;;;;;;;;;;1288655;23;742;-45
2022/04/14 02:58:53;;;;;;;;;;;;;;;;;;1288202;23;829;-44
2022/04/14 02:59:23;;;;;;;;;;;;;;;;;;1288582;23;889;-45
2022/04/14 02:59:53;;;;;;;;;;;;;;;;;;1288353;23;773;-44
2022/04/14 03:00:23;;;;;;;;;;;;;;;;;;1287875;23;1077;-44
2022/04/14 03:00:54;;;;;;;;;;;;;;;;;;1288453;23;813;-45
2022/04/14 03:01:24;;;;;;;;;;;;;;;;;;1288413;23;790;-45
2022/04/14 03:01:54;;;;;;;;;;;;;;;;;;1288398;23;956;-44
2022/04/14 03:02:25;;;;;;;;;;;;;;;;;;1288355;23;877;-44
2022/04/14 03:03:01;;;;;;;;;;;;;;;;;;1288478;23;822;-45
2022/04/14 03:03:32;;;;;;;;;;;;;;;;;;1281953;23;982;-45
2022/04/14 03:04:02;;;;;;;;;;;;;;;;;;1281331;23;908;-45
2022/04/14 03:04:32;;;;;;;;;;;;;;;;;;1281522;23;888;-45
2022/04/14 03:05:03;;;;;;;;;;;;;;;;;;1281747;23;844;-45
2022/04/14 03:05:33;;;;;;;;;;;;;;;;;;1288624;23;896;-45
2022/04/14 03:06:03;;;;;;;;;;;;;;;;;;1288488;23;850;-45
2022/04/14 03:06:34;;;;;;;;;;;;;;;;;;1281854;23;1292;-44
2022/04/14 03:07:05;;;;;;;;;;;;;;;;;;1281782;23;865;-45
2022/04/14 03:07:35;;;;;;;;;;;;;;;;;;1282386;23;956;-45
2022/04/14 03:08:05;;;;;;;;;;;;;;;;;;1281799;23;932;-45
2022/04/14 03:08:36;;;;;;;;;;;;;;;;;;1289154;23;837;-44
2022/04/14 03:09:06;;;;;;;;;;;;;;;;;;1288693;23;818;-44
2022/04/14 03:09:36;;;;;;;;;;;;;;;;;;1289002;23;873;-45
2022/04/14 03:10:07;;;;;;;;;;;;;;;;;;1287577;23;1121;-44
2022/04/14 03:10:37;;;;;;;;;;;;;;;;;;1289016;23;897;-44
2022/04/14 03:11:08;;;;;;;;;;;;;;;;;;1288713;23;848;-44
2022/04/14 03:11:39;;;;;;;;;;;;;;;;;;1288927;23;925;-45
2022/04/14 03:12:10;;;;;;;;;;;;;;;;;;1288362;23;782;-45
2022/04/14 03:12:41;;;;;;;;;;;;;;;;;;1289039;23;965;-44
2022/04/14 03:13:11;;;;;;;;;;;;;;;;;;1288984;23;857;-44
2022/04/14 03:13:42;;;;;;;;;;;;;;;;;;1288974;22;1333;-44
2022/04/14 03:14:12;;;;;;;;;;;;;;;;;;1288696;23;1125;-44
2022/04/14 03:14:46;;;;;;;;;;;;;;;;;;1289424;23;897;-45
2022/04/14 03:15:19;;;;;;;;;;;;;;;;;;1292565;23;766;-45
2022/04/14 03:15:51;;;;;;;;;;;;;;;;;;1291802;23;952;-44
2022/04/14 03:16:21;;;;;;;;;;;;;;;;;;1291853;23;936;-45
2022/04/14 03:16:51;;;;;;;;;;;;;;;;;;1290839;23;1092;-44
2022/04/14 03:17:24;;;;;;;;;;;;;;;;;;1288963;23;896;-45
2022/04/14 03:17:54;;;;;;;;;;;;;;;;;;1282177;23;802;-44
2022/04/14 03:18:28;;;;;;;;;;;;;;;;;;1282073;23;924;-44
2022/04/14 03:18:58;;;;;;;;;;;;;;;;;;1281699;23;845;-45
2022/04/14 03:19:28;;;;;;;;;;;;;;;;;;1282999;23;925;-44
2022/04/14 03:19:58;;;;;;;;;;;;;;;;;;1288501;23;893;-46
2022/04/14 03:20:29;;;;;;;;;;;;;;;;;;1281918;23;1306;-44
2022/04/14 03:21:00;;;;;;;;;;;;;;;;;;1281905;23;877;-45
2022/04/14 03:21:30;;;;;;;;;;;;;;;;;;1281943;23;708;-44
2022/04/14 03:22:00;;;;;;;;;;;;;;;;;;1282086;23;845;-44
2022/04/14 03:22:34;;;;;;;;;;;;;;;;;;1288707;23;856;-44
2022/04/14 03:23:06;;;;;;;;;;;;;;;;;;1288541;23;1122;-46
2022/04/14 03:23:36;;;;;;;;;;;;;;;;;;1288915;23;905;-46
2022/04/14 03:24:07;;;;;;;;;;;;;;;;;;1288403;23;913;-46
2022/04/14 03:24:37;;;;;;;;;;;;;;;;;;1288885;23;766;-46
2022/04/14 03:25:10;;;;;;;;;;;;;;;;;;1288590;23;916;-46
2022/04/14 03:25:40;;;;;;;;;;;;;;;;;;1288866;23;964;-46
2022/04/14 03:26:10;;;;;;;;;;;;;;;;;;1288423;23;872;-47
2022/04/14 03:26:41;;;;;;;;;;;;;;;;;;1288209;23;825;-46
2022/04/14 03:27:11;;;;;;;;;;;;;;;;;;1288474;23;912;-46
2022/04/14 03:27:42;;;;;;;;;;;;;;;;;;1288834;23;840;-46
2022/04/14 03:28:12;;;;;;;;;;;;;;;;;;1288441;23;904;-46
2022/04/14 03:28:42;;;;;;;;;;;;;;;;;;1288902;23;864;-46
2022/04/14 03:29:13;;;;;;;;;;;;;;;;;;1281757;23;1396;-46
2022/04/14 03:29:43;;;;;;;;;;;;;;;;;;1282419;23;840;-46
2022/04/14 03:30:13;;;;;;;;;;;;;;;;;;1281716;23;813;-46
2022/04/14 03:30:50;;;;;;;;;;;;;;;;;;1282050;23;773;-46
2022/04/14 03:31:20;;;;;;;;;;;;;;;;;;1288269;23;900;-46
2022/04/14 03:31:50;;;;;;;;;;;;;;;;;;1288508;23;762;-46
2022/04/14 03:32:22;;;;;;;;;;;;;;;;;;1288895;23;889;-46
2022/04/14 03:32:52;;;;;;;;;;;;;;;;;;1288600;23;928;-45
2022/04/14 03:33:23;;;;;;;;;;;;;;;;;;1287724;23;936;-46
2022/04/14 03:33:54;;;;;;;;;;;;;;;;;;1288417;23;864;-46
2022/04/14 03:34:24;;;;;;;;;;;;;;;;;;1287531;23;952;-46
2022/04/14 03:34:54;;;;;;;;;;;;;;;;;;1288773;23;936;-46
2022/04/14 03:35:25;;;;;;;;;;;;;;;;;;1288747;23;920;-46
2022/04/14 03:35:58;;;;;;;;;;;;;;;;;;1288402;23;836;-46
2022/04/14 03:36:29;;;;;;;;;;;;;;;;;;1288759;23;923;-47
2022/04/14 03:36:59;;;;;;;;;;;;;;;;;;1288615;23;865;-46
2022/04/14 03:37:29;;;;;;;;;;;;;;;;;;1288467;23;1896;-46
2022/04/14 03:37:59;;;;;;;;;;;;;;;;;;1288691;23;896;-46
2022/04/14 03:38:30;;;;;;;;;;;;;;;;;;1288504;23;1020;-46